WZZ411 LZIB-LQTZ
Flight info
| Callsign | WZZ411 |
|---|---|
| Flight time | 0h 38m |
| Altitude | 31000 |
| Route | VAMOG DCT SIRDU DCT OSDUK/N0426F300 DCT LAKIK DCT GUBOK/N0361F190 N131 DER |
| Aircraft | A321/M-SDE1E2E3FGIJ1J4RWXY/LB1 |
Departure
| Time | 2026-04-24 18:55 |
|---|---|
| Airport | M. R. Štefánik Airport (LZIB) |
Arrival
| Time | 2026-04-24 19:33 |
|---|---|
| Airport | Tuzla International Airport (LQTZ) |
| Time | Latitude | Longitude | Altitude | Speed | Heading |
|---|---|---|---|---|---|
| 2026-04-24 18:54 | 48.12331 | 17.39668 | 8566 ft | 309 kts | 154° |
| 2026-04-24 18:55 | 48.08467 | 17.42712 | 10171 ft | 317 kts | 152° |
| 2026-04-24 18:55 | 48.06479 | 17.44293 | 10498 ft | 338 kts | 152° |
| 2026-04-24 18:55 | 48.04331 | 17.46001 | 10767 ft | 358 kts | 152° |
| 2026-04-24 18:56 | 48.02107 | 17.47767 | 11365 ft | 365 kts | 152° |
| 2026-04-24 18:56 | 47.99846 | 17.49560 | 12077 ft | 369 kts | 152° |
| 2026-04-24 18:56 | 47.97563 | 17.51374 | 12783 ft | 373 kts | 152° |
| 2026-04-24 18:56 | 47.95258 | 17.53207 | 13495 ft | 377 kts | 152° |
| 2026-04-24 18:57 | 47.92935 | 17.55050 | 14177 ft | 380 kts | 152° |
| 2026-04-24 18:57 | 47.90589 | 17.56905 | 14810 ft | 383 kts | 152° |
| 2026-04-24 18:57 | 47.89020 | 17.58144 | 15235 ft | 386 kts | 152° |
| 2026-04-24 18:57 | 47.86632 | 17.60025 | 15881 ft | 389 kts | 152° |
| 2026-04-24 18:58 | 47.83441 | 17.62542 | 16752 ft | 393 kts | 152° |
| 2026-04-24 18:58 | 47.81005 | 17.64461 | 17402 ft | 397 kts | 153° |
| 2026-04-24 18:58 | 47.79341 | 17.65602 | 17805 ft | 399 kts | 160° |
| 2026-04-24 18:58 | 47.76655 | 17.66762 | 18407 ft | 401 kts | 171° |
| 2026-04-24 18:59 | 47.73889 | 17.67439 | 18948 ft | 404 kts | 172° |
| 2026-04-24 18:59 | 47.71102 | 17.68110 | 19516 ft | 407 kts | 172° |
| 2026-04-24 18:59 | 47.68323 | 17.68782 | 20078 ft | 410 kts | 172° |
| 2026-04-24 18:59 | 47.65492 | 17.69467 | 20657 ft | 412 kts | 172° |
| 2026-04-24 19:00 | 47.62645 | 17.70159 | 21227 ft | 415 kts | 172° |
| 2026-04-24 19:00 | 47.59770 | 17.70858 | 21781 ft | 419 kts | 172° |
| 2026-04-24 19:00 | 47.56886 | 17.71562 | 22367 ft | 421 kts | 172° |
| 2026-04-24 19:00 | 47.54005 | 17.72268 | 22920 ft | 424 kts | 172° |
| 2026-04-24 19:01 | 47.51084 | 17.72983 | 23473 ft | 427 kts | 172° |
| 2026-04-24 19:01 | 47.48137 | 17.73698 | 23930 ft | 429 kts | 172° |
| 2026-04-24 19:01 | 47.45168 | 17.74413 | 24362 ft | 432 kts | 172° |
| 2026-04-24 19:01 | 47.42189 | 17.75128 | 24791 ft | 435 kts | 172° |
| 2026-04-24 19:02 | 47.39232 | 17.75839 | 25209 ft | 438 kts | 172° |
| 2026-04-24 19:02 | 47.36210 | 17.76569 | 25618 ft | 441 kts | 171° |
| 2026-04-24 19:02 | 47.33171 | 17.77309 | 26031 ft | 444 kts | 171° |
| 2026-04-24 19:02 | 47.30111 | 17.78055 | 26443 ft | 446 kts | 171° |
| 2026-04-24 19:03 | 47.27030 | 17.78800 | 26832 ft | 449 kts | 171° |
| 2026-04-24 19:03 | 47.23911 | 17.79554 | 26982 ft | 458 kts | 171° |
| 2026-04-24 19:03 | 47.20747 | 17.80311 | 27131 ft | 467 kts | 171° |
| 2026-04-24 19:03 | 47.17509 | 17.81079 | 27250 ft | 475 kts | 171° |
| 2026-04-24 19:04 | 47.14212 | 17.81857 | 27376 ft | 483 kts | 171° |
| 2026-04-24 19:04 | 47.10852 | 17.82650 | 27517 ft | 491 kts | 171° |
| 2026-04-24 19:04 | 47.07496 | 17.83442 | 27641 ft | 497 kts | 171° |
| 2026-04-24 19:04 | 47.04054 | 17.84256 | 27821 ft | 502 kts | 171° |
| 2026-04-24 19:05 | 47.00602 | 17.85074 | 28117 ft | 503 kts | 171° |
| 2026-04-24 19:05 | 46.97127 | 17.85897 | 28469 ft | 502 kts | 171° |
| 2026-04-24 19:05 | 46.93672 | 17.86716 | 28851 ft | 502 kts | 171° |
| 2026-04-24 19:05 | 46.90251 | 17.87526 | 29224 ft | 501 kts | 171° |
| 2026-04-24 19:06 | 46.86805 | 17.88339 | 29600 ft | 500 kts | 171° |
| 2026-04-24 19:06 | 46.83396 | 17.89138 | 29979 ft | 500 kts | 171° |
| 2026-04-24 19:06 | 46.79957 | 17.89943 | 30316 ft | 499 kts | 171° |
| 2026-04-24 19:06 | 46.76526 | 17.90750 | 30652 ft | 498 kts | 170° |
| 2026-04-24 19:07 | 46.73095 | 17.91560 | 30936 ft | 498 kts | 170° |
| 2026-04-24 19:07 | 46.66281 | 17.93170 | 31030 ft | 498 kts | 170° |
| 2026-04-24 19:08 | 46.59439 | 17.94777 | 31030 ft | 498 kts | 170° |
| 2026-04-24 19:08 | 46.52597 | 17.96367 | 31027 ft | 496 kts | 170° |
| 2026-04-24 19:09 | 46.45804 | 17.97943 | 31042 ft | 496 kts | 170° |
| 2026-04-24 19:09 | 46.38977 | 17.99533 | 31032 ft | 497 kts | 170° |
| 2026-04-24 19:10 | 46.32133 | 18.01125 | 31027 ft | 497 kts | 170° |
| 2026-04-24 19:10 | 46.25338 | 18.02695 | 31047 ft | 497 kts | 170° |
| 2026-04-24 19:11 | 46.18493 | 18.04271 | 31059 ft | 497 kts | 170° |
| 2026-04-24 19:11 | 46.11647 | 18.05840 | 31068 ft | 497 kts | 170° |
| 2026-04-24 19:12 | 46.04843 | 18.07406 | 31073 ft | 497 kts | 170° |
| 2026-04-24 19:12 | 45.97996 | 18.08972 | 31086 ft | 497 kts | 170° |
| 2026-04-24 19:13 | 45.92307 | 18.10272 | 31079 ft | 497 kts | 170° |
| 2026-04-24 19:13 | 45.84362 | 18.12083 | 31077 ft | 497 kts | 170° |
| 2026-04-24 19:13 | 45.80977 | 18.12834 | 31043 ft | 484 kts | 172° |
| 2026-04-24 19:14 | 45.77660 | 18.13047 | 30880 ft | 471 kts | 182° |
| 2026-04-24 19:14 | 45.74415 | 18.12534 | 30482 ft | 464 kts | 188° |
| 2026-04-24 19:14 | 45.71236 | 18.11902 | 29993 ft | 459 kts | 188° |
| 2026-04-24 19:14 | 45.68150 | 18.11285 | 29134 ft | 448 kts | 188° |
| 2026-04-24 19:15 | 45.65070 | 18.10672 | 27925 ft | 443 kts | 188° |
| 2026-04-24 19:15 | 45.62030 | 18.10073 | 26916 ft | 435 kts | 188° |
| 2026-04-24 19:15 | 45.59160 | 18.09242 | 26391 ft | 417 kts | 197° |
| 2026-04-24 19:15 | 45.56402 | 18.08048 | 26050 ft | 412 kts | 197° |
| 2026-04-24 19:16 | 45.50936 | 18.05740 | 25209 ft | 407 kts | 197° |
| 2026-04-24 19:16 | 45.48220 | 18.04602 | 24794 ft | 405 kts | 197° |
| 2026-04-24 19:16 | 45.45516 | 18.03466 | 24371 ft | 403 kts | 197° |
| 2026-04-24 19:17 | 45.42838 | 18.02335 | 23941 ft | 401 kts | 197° |
| 2026-04-24 19:17 | 45.40196 | 18.01215 | 23491 ft | 400 kts | 197° |
| 2026-04-24 19:17 | 45.37529 | 18.00082 | 23021 ft | 397 kts | 197° |
| 2026-04-24 19:17 | 45.34886 | 17.98961 | 22580 ft | 393 kts | 197° |
| 2026-04-24 19:18 | 45.32267 | 17.97854 | 22132 ft | 390 kts | 197° |
| 2026-04-24 19:18 | 45.29678 | 17.96761 | 21693 ft | 387 kts | 197° |
| 2026-04-24 19:18 | 45.27136 | 17.95687 | 21245 ft | 384 kts | 197° |
| 2026-04-24 19:18 | 45.24583 | 17.94611 | 20804 ft | 381 kts | 197° |
| 2026-04-24 19:19 | 45.22049 | 17.93544 | 20356 ft | 378 kts | 197° |
| 2026-04-24 19:19 | 45.19527 | 17.92479 | 19913 ft | 375 kts | 197° |
| 2026-04-24 19:19 | 45.17060 | 17.91437 | 19478 ft | 373 kts | 197° |
| 2026-04-24 19:19 | 45.14579 | 17.90392 | 19037 ft | 370 kts | 197° |
| 2026-04-24 19:20 | 45.12104 | 17.89354 | 18600 ft | 368 kts | 197° |
| 2026-04-24 19:20 | 45.09675 | 17.88363 | 18137 ft | 366 kts | 193° |
| 2026-04-24 19:20 | 45.07154 | 17.88028 | 17685 ft | 362 kts | 176° |
| 2026-04-24 19:20 | 45.04707 | 17.88718 | 17251 ft | 357 kts | 159° |
| 2026-04-24 19:21 | 45.02527 | 17.90339 | 16792 ft | 352 kts | 141° |
| 2026-04-24 19:21 | 45.00789 | 17.92718 | 16351 ft | 346 kts | 126° |
| 2026-04-24 19:21 | 44.99283 | 17.95370 | 15893 ft | 345 kts | 130° |
| 2026-04-24 19:21 | 44.97491 | 17.97626 | 15460 ft | 346 kts | 143° |
| 2026-04-24 19:22 | 44.96135 | 17.98801 | 15184 ft | 345 kts | 149° |
| 2026-04-24 19:22 | 44.93327 | 18.01008 | 14628 ft | 343 kts | 149° |
| 2026-04-24 19:22 | 44.91266 | 18.02634 | 14218 ft | 342 kts | 149° |
| 2026-04-24 19:22 | 44.89188 | 18.04278 | 13788 ft | 340 kts | 149° |
| 2026-04-24 19:23 | 44.87126 | 18.05912 | 13341 ft | 338 kts | 149° |
| 2026-04-24 19:23 | 44.85084 | 18.07528 | 12941 ft | 335 kts | 149° |
| 2026-04-24 19:23 | 44.83084 | 18.09112 | 12582 ft | 331 kts | 149° |
| 2026-04-24 19:23 | 44.81099 | 18.10681 | 12369 ft | 322 kts | 149° |
| 2026-04-24 19:24 | 44.79138 | 18.12231 | 11959 ft | 322 kts | 149° |
| 2026-04-24 19:24 | 44.77190 | 18.13774 | 11685 ft | 318 kts | 149° |
| 2026-04-24 19:24 | 44.75262 | 18.15302 | 11344 ft | 321 kts | 149° |
| 2026-04-24 19:24 | 44.73337 | 18.16823 | 10977 ft | 319 kts | 149° |
| 2026-04-24 19:25 | 44.71388 | 18.18362 | 10521 ft | 320 kts | 149° |
| 2026-04-24 19:25 | 44.69450 | 18.19892 | 10206 ft | 317 kts | 149° |
| 2026-04-24 19:25 | 44.67544 | 18.21392 | 9827 ft | 316 kts | 149° |
| 2026-04-24 19:25 | 44.65630 | 18.22896 | 9449 ft | 314 kts | 149° |
| 2026-04-24 19:26 | 44.63734 | 18.24386 | 8891 ft | 308 kts | 149° |
| 2026-04-24 19:26 | 44.61878 | 18.25845 | 8144 ft | 303 kts | 149° |
| 2026-04-24 19:26 | 44.60052 | 18.27279 | 7442 ft | 296 kts | 149° |
| 2026-04-24 19:26 | 44.58274 | 18.28673 | 6867 ft | 287 kts | 149° |
| 2026-04-24 19:27 | 44.56541 | 18.30028 | 6664 ft | 287 kts | 149° |
| 2026-04-24 19:27 | 44.54821 | 18.31375 | 6276 ft | 276 kts | 149° |
| 2026-04-24 19:27 | 44.53190 | 18.32650 | 5883 ft | 261 kts | 149° |
| 2026-04-24 19:27 | 44.51688 | 18.33821 | 5788 ft | 242 kts | 149° |
| 2026-04-24 19:28 | 44.50227 | 18.35019 | 5696 ft | 244 kts | 141° |
| 2026-04-24 19:28 | 44.49075 | 18.36729 | 5505 ft | 240 kts | 118° |
| 2026-04-24 19:28 | 44.48476 | 18.38799 | 5257 ft | 222 kts | 97° |
| 2026-04-24 19:28 | 44.48300 | 18.40893 | 4990 ft | 219 kts | 93° |
| 2026-04-24 19:29 | 44.47984 | 18.45106 | 4385 ft | 216 kts | 94° |
| 2026-04-24 19:29 | 44.47824 | 18.47201 | 4102 ft | 216 kts | 94° |
| 2026-04-24 19:29 | 44.47664 | 18.49292 | 3814 ft | 215 kts | 94° |
| 2026-04-24 19:30 | 44.47507 | 18.51343 | 3539 ft | 215 kts | 94° |
| 2026-04-24 19:30 | 44.47346 | 18.53432 | 3242 ft | 214 kts | 95° |
| 2026-04-24 19:30 | 44.47187 | 18.55499 | 2951 ft | 213 kts | 95° |
| 2026-04-24 19:30 | 44.47031 | 18.57521 | 2699 ft | 204 kts | 95° |
| 2026-04-24 19:31 | 44.46883 | 18.59423 | 2420 ft | 192 kts | 95° |
| 2026-04-24 19:31 | 44.46745 | 18.61208 | 2164 ft | 178 kts | 96° |
| 2026-04-24 19:31 | 44.46616 | 18.62864 | 1959 ft | 162 kts | 96° |
| 2026-04-24 19:31 | 44.46499 | 18.64373 | 1733 ft | 151 kts | 96° |
| 2026-04-24 19:32 | 44.46387 | 18.65809 | 1528 ft | 146 kts | 96° |
| 2026-04-24 19:32 | 44.46278 | 18.67208 | 1338 ft | 143 kts | 96° |
| 2026-04-24 19:32 | 44.46170 | 18.68583 | 1151 ft | 141 kts | 96° |
| 2026-04-24 19:32 | 44.46062 | 18.69947 | 981 ft | 141 kts | 95° |
| 2026-04-24 19:33 | 44.45961 | 18.71306 | 784 ft | 137 kts | 96° |
| 2026-04-24 19:33 | 44.45871 | 18.72420 | 786 ft | 91 kts | 96° |
| 2026-04-24 19:33 | 44.45820 | 18.73056 | 789 ft | 42 kts | 96° |
| 2026-04-24 19:33 | 44.45796 | 18.73327 | 791 ft | 23 kts | 103° |
| 2026-04-24 19:34 | 44.45794 | 18.73408 | 790 ft | 6 kts | 324° |
| 2026-04-24 19:34 | 44.45808 | 18.73232 | 791 ft | 29 kts | 276° |
| 2026-04-24 19:34 | 44.45828 | 18.72962 | 788 ft | 28 kts | 276° |
| 2026-04-24 19:34 | 44.45847 | 18.72691 | 788 ft | 29 kts | 276° |
| 2026-04-24 19:35 | 44.45859 | 18.72513 | 786 ft | 25 kts | 275° |
| 2026-04-24 19:35 | 44.45887 | 18.72176 | 786 ft | 27 kts | 278° |
| 2026-04-24 19:35 | 44.45906 | 18.71906 | 786 ft | 29 kts | 273° |
| 2026-04-24 19:35 | 44.45925 | 18.71628 | 783 ft | 28 kts | 277° |
| 2026-04-24 19:36 | 44.45947 | 18.71364 | 780 ft | 26 kts | 276° |
| 2026-04-24 19:36 | 44.45967 | 18.71119 | 778 ft | 22 kts | 276° |
| 2026-04-24 19:36 | 44.46014 | 18.70945 | 778 ft | 18 kts | 321° |
| 2026-04-24 19:36 | 44.46122 | 18.70926 | 779 ft | 13 kts | 7° |
| 2026-04-24 19:37 | 44.46202 | 18.70947 | 780 ft | 11 kts | 11° |
| 2026-04-24 19:37 | 44.46265 | 18.70982 | 780 ft | 9 kts | 34° |
| 2026-04-24 19:37 | 44.46300 | 18.71039 | 780 ft | 7 kts | 59° |
| 2026-04-24 19:37 | 44.46303 | 18.71045 | 780 ft | 0 kts | 60° |